Time;durP1;ratioP1;P1;durP2;ratioP2;P2;SDS_P1;SDS_P2;PMS_P1;PMS_P2;Temp;Humidity;BMP_temperature;BMP_pressure;BME280_temperature;BME280_humidity;BME280_pressure;Samples;Min_cycle;Max_cycle;Signal;HPM_P1;HPM_P2
2023/09/28 00:00:37;;;;;;;5.33;4.83;;;19.90;1.00;;;;;;6277739;22;20387;-44
2023/09/28 00:03:04;;;;;;;6.60;5.07;;;19.90;1.00;;;;;;6277668;22;20385;-45
2023/09/28 00:05:30;;;;;;;5.37;4.87;;;19.90;1.00;;;;;;6278106;22;20746;-44
2023/09/28 00:07:56;;;;;;;5.90;5.30;;;19.90;1.00;;;;;;6277030;22;20756;-45
2023/09/28 00:10:21;;;;;;;8.03;4.70;;;19.90;1.00;;;;;;6275801;22;20152;-44
2023/09/28 00:12:49;;;;;;;5.93;5.33;;;19.80;1.00;;;;;;6278512;22;20391;-44
2023/09/28 00:15:15;;;;;;;7.43;4.40;;;19.90;1.00;;;;;;6277450;22;20148;-44
2023/09/28 00:17:41;;;;;;;5.00;4.50;;;19.90;1.00;;;;;;6277885;22;20390;-44
2023/09/28 00:20:18;;;;;;;5.63;5.00;;;19.90;1.00;;;;;;6277924;22;20344;-44
2023/09/28 00:22:46;;;;;;;4.87;4.47;;;19.90;1.00;;;;;;6278423;22;20519;-44
2023/09/28 00:25:12;;;;;;;5.70;5.10;;;19.90;1.00;;;;;;6277751;22;20386;-44
2023/09/28 00:27:39;;;;;;;5.37;4.87;;;19.90;1.00;;;;;;6277552;22;20383;-44
2023/09/28 00:30:06;;;;;;;5.27;4.77;;;19.90;1.00;;;;;;6277189;22;20383;-44
2023/09/28 00:32:33;;;;;;;4.97;4.47;;;19.80;1.00;;;;;;6277454;22;20444;-44
2023/09/28 00:34:58;;;;;;;5.23;4.50;;;19.80;1.00;;;;;;6277330;22;20347;-44
2023/09/28 00:37:24;;;;;;;5.30;4.80;;;19.80;1.00;;;;;;6278227;22;20448;-44
2023/09/28 00:39:49;;;;;;;8.17;4.97;;;19.80;1.00;;;;;;6277986;22;20159;-44
2023/09/28 00:42:16;;;;;;;5.70;5.10;;;19.80;1.00;;;;;;6276158;22;20252;-43
2023/09/28 00:44:42;;;;;;;5.20;4.70;;;19.80;1.00;;;;;;6277677;22;20149;-44
2023/09/28 00:47:08;;;;;;;4.50;4.00;;;19.80;1.00;;;;;;6276418;22;20631;-44
2023/09/28 00:49:34;;;;;;;5.70;5.10;;;19.80;1.00;;;;;;6250677;22;20145;-43
2023/09/28 00:51:59;;;;;;;5.60;5.10;;;19.80;1.00;;;;;;6275666;22;20433;-44
2023/09/28 00:54:27;;;;;;;5.00;4.60;;;19.80;1.00;;;;;;6277508;22;20611;-44
2023/09/28 00:56:53;;;;;;;5.87;4.80;;;19.80;1.00;;;;;;6277580;22;20176;-45
2023/09/28 00:59:19;;;;;;;4.77;4.27;;;19.70;1.00;;;;;;6276560;22;20702;-43
2023/09/28 01:01:47;;;;;;;5.00;4.50;;;19.70;1.00;;;;;;6277264;22;20190;-44
2023/09/28 01:04:12;;;;;;;5.40;4.77;;;19.70;1.00;;;;;;6277335;22;20383;-44
2023/09/28 01:06:39;;;;;;;5.10;4.70;;;19.70;1.00;;;;;;6277694;22;20408;-44
2023/09/28 01:09:09;;;;;;;7.87;4.60;;;19.70;1.00;;;;;;6277514;22;20148;-44
2023/09/28 01:11:35;;;;;;;5.53;5.03;;;19.70;1.00;;;;;;6276157;22;20460;-43
2023/09/28 01:14:02;;;;;;;6.83;4.97;;;19.70;1.00;;;;;;6276991;22;20659;-44
2023/09/28 01:16:27;;;;;;;5.50;4.47;;;19.70;1.00;;;;;;6277625;22;20432;-44
2023/09/28 01:18:53;;;;;;;5.33;4.60;;;19.70;1.00;;;;;;6277272;22;20387;-44
2023/09/28 01:21:19;;;;;;;5.40;4.90;;;19.70;1.00;;;;;;6277577;22;20840;-44
2023/09/28 01:23:45;;;;;;;7.90;4.57;;;19.70;1.00;;;;;;6277261;22;20152;-44
2023/09/28 01:26:11;;;;;;;6.57;5.30;;;19.70;1.00;;;;;;6276750;22;20148;-44
2023/09/28 01:28:38;;;;;;;5.37;4.83;;;19.70;1.00;;;;;;6277148;22;20363;-44
2023/09/28 01:31:04;;;;;;;6.03;4.93;;;19.70;1.00;;;;;;6277974;22;20378;-44
2023/09/28 01:33:30;;;;;;;5.40;4.90;;;19.70;1.00;;;;;;6277294;22;20480;-44
2023/09/28 01:35:55;;;;;;;5.20;4.70;;;19.70;1.00;;;;;;6277246;22;20192;-44
2023/09/28 01:38:39;;;;;;;5.00;4.50;;;19.70;1.00;;;;;;6277283;22;20270;-44
2023/09/28 01:41:05;;;;;;;5.30;4.80;;;19.70;1.00;;;;;;6250816;22;20199;-44
2023/09/28 01:43:30;;;;;;;5.00;4.50;;;19.70;1.00;;;;;;6277083;22;20352;-44
2023/09/28 01:45:56;;;;;;;5.10;4.70;;;19.70;1.00;;;;;;6277349;22;20205;-44
2023/09/28 01:48:22;;;;;;;5.73;4.90;;;19.70;1.00;;;;;;6276797;22;20199;-44
2023/09/28 01:50:48;;;;;;;5.40;4.90;;;19.70;1.00;;;;;;6277959;22;20162;-44
2023/09/28 01:53:13;;;;;;;6.67;4.97;;;19.60;1.00;;;;;;6277409;22;20137;-44
2023/09/28 01:55:39;;;;;;;4.70;4.30;;;19.60;1.00;;;;;;6276991;22;20415;-44
2023/09/28 01:58:07;;;;;;;5.37;4.87;;;19.60;1.00;;;;;;6277150;22;20149;-44
2023/09/28 02:00:34;;;;;;;5.00;4.53;;;19.60;1.00;;;;;;6277622;22;20149;-44
2023/09/28 02:03:01;;;;;;;5.50;4.33;;;19.60;1.00;;;;;;6277303;22;20500;-43
2023/09/28 02:05:31;;;;;;;5.20;4.70;;;19.60;1.00;;;;;;6276470;22;20477;-43
2023/09/28 02:07:57;;;;;;;5.20;4.70;;;19.60;1.00;;;;;;6275413;22;20355;-43
2023/09/28 02:10:23;;;;;;;6.33;5.20;;;19.60;1.00;;;;;;6277080;22;20394;-43
2023/09/28 02:12:50;;;;;;;5.70;5.00;;;19.50;1.00;;;;;;6278196;22;20379;-43
2023/09/28 02:15:16;;;;;;;5.70;5.20;;;19.50;1.00;;;;;;6278841;22;20144;-43
2023/09/28 02:17:44;;;;;;;6.10;4.83;;;19.50;1.00;;;;;;6278632;22;20479;-43
2023/09/28 02:20:10;;;;;;;5.50;4.87;;;19.50;1.00;;;;;;6277334;22;20448;-43
2023/09/28 02:22:43;;;;;;;5.10;4.60;;;19.50;1.00;;;;;;6279316;22;20390;-43
2023/09/28 02:25:17;;;;;;;5.40;4.90;;;19.50;1.00;;;;;;6279671;22;20801;-43
2023/09/28 02:27:44;;;;;;;4.50;4.10;;;19.50;1.00;;;;;;6277944;22;20465;-43
2023/09/28 02:30:11;;;;;;;5.00;4.60;;;19.50;1.00;;;;;;6279136;22;20375;-43
2023/09/28 02:32:39;;;;;;;5.20;4.50;;;19.50;1.00;;;;;;6275918;22;20493;-44
2023/09/28 02:35:07;;;;;;;5.33;4.83;;;19.50;1.00;;;;;;6278466;22;20401;-43
2023/09/28 02:37:33;;;;;;;5.50;4.50;;;19.50;1.00;;;;;;6278627;22;20818;-43
2023/09/28 02:39:59;;;;;;;5.53;5.03;;;19.50;1.00;;;;;;6278098;22;20379;-43
2023/09/28 02:42:25;;;;;;;5.20;4.70;;;19.50;1.00;;;;;;6278647;22;20468;-43
2023/09/28 02:48:12;;;;;;;6.93;5.30;;;19.50;1.00;;;;;;6277215;22;20246;-43
2023/09/28 02:50:38;;;;;;;5.47;5.03;;;19.50;1.00;;;;;;6278723;22;20376;-43
2023/09/28 02:53:05;;;;;;;5.87;5.23;;;19.50;1.00;;;;;;6279137;22;20147;-44
2023/09/28 02:55:32;;;;;;;5.10;4.60;;;19.50;1.00;;;;;;6279616;22;20198;-43
2023/09/28 02:57:58;;;;;;;5.73;5.10;;;19.50;1.00;;;;;;6278084;22;20473;-44
2023/09/28 03:00:32;;;;;;;5.20;4.70;;;19.50;1.00;;;;;;6276737;22;20391;-44
2023/09/28 03:03:05;;;;;;;5.40;4.90;;;19.50;1.00;;;;;;6278536;22;20443;-42
2023/09/28 03:05:32;;;;;;;5.87;5.37;;;19.50;1.00;;;;;;6278327;22;20459;-43
2023/09/28 03:07:58;;;;;;;4.77;4.37;;;19.50;1.00;;;;;;6279032;22;20599;-44
2023/09/28 03:10:24;;;;;;;4.80;4.40;;;19.50;1.00;;;;;;6279011;22;20375;-44
2023/09/28 03:12:51;;;;;;;4.43;4.03;;;19.50;1.00;;;;;;6277839;22;20405;-43
2023/09/28 03:15:17;;;;;;;5.20;4.70;;;19.50;1.00;;;;;;6276648;22;20628;-43
2023/09/28 03:17:43;;;;;;;5.33;4.83;;;19.50;1.00;;;;;;6276126;22;20422;-42
2023/09/28 03:20:17;;;;;;;5.07;4.57;;;19.50;1.00;;;;;;6277679;22;20375;-43
2023/09/28 03:22:44;;;;;;;6.00;4.80;;;19.50;1.00;;;;;;6275730;22;20446;-43
2023/09/28 03:25:16;;;;;;;4.83;4.33;;;19.50;1.00;;;;;;6278222;22;20379;-42
2023/09/28 03:27:42;;;;;;;5.47;4.87;;;19.50;1.00;;;;;;6277694;22;20379;-44
2023/09/28 03:30:10;;;;;;;5.17;4.67;;;19.50;1.00;;;;;;6276306;22;20782;-43
2023/09/28 03:32:37;;;;;;;5.97;5.37;;;19.50;1.00;;;;;;6276989;22;20407;-44
2023/09/28 03:35:13;;;;;;;5.77;4.90;;;19.50;1.00;;;;;;6276404;22;20803;-44
2023/09/28 03:37:40;;;;;;;4.70;4.30;;;19.50;1.00;;;;;;6276947;22;20833;-44
2023/09/28 03:40:10;;;;;;;5.53;4.67;;;19.50;1.00;;;;;;6277086;22;20382;-44
2023/09/28 03:42:40;;;;;;;5.33;4.60;;;19.50;1.00;;;;;;6276877;22;20375;-44
2023/09/28 03:45:08;;;;;;;5.57;5.07;;;19.40;1.00;;;;;;6276220;22;20371;-43
2023/09/28 03:47:37;;;;;;;4.80;4.40;;;19.40;1.00;;;;;;6276518;22;20431;-44
2023/09/28 03:50:05;;;;;;;5.80;4.97;;;19.40;1.00;;;;;;6250092;22;20813;-44
2023/09/28 03:52:31;;;;;;;6.40;4.77;;;19.40;1.00;;;;;;6251299;22;20399;-43
2023/09/28 03:54:57;;;;;;;4.80;4.40;;;19.40;1.00;;;;;;6278352;22;20440;-43
2023/09/28 03:57:23;;;;;;;6.57;5.97;;;19.40;1.00;;;;;;6276584;22;20211;-43
2023/09/28 03:59:49;;;;;;;6.70;4.97;;;19.40;1.00;;;;;;6277367;22;20144;-44
2023/09/28 04:02:15;;;;;;;5.40;4.90;;;19.40;1.00;;;;;;6277026;22;20206;-43
2023/09/28 04:04:40;;;;;;;5.70;5.20;;;19.40;1.00;;;;;;6277144;22;20370;-43
2023/09/28 04:07:08;;;;;;;5.50;4.33;;;19.40;1.00;;;;;;6274967;22;20153;-44
2023/09/28 04:09:33;;;;;;;6.07;5.10;;;19.40;1.00;;;;;;6276943;22;20159;-44
2023/09/28 04:11:59;;;;;;;5.27;4.77;;;19.40;1.00;;;;;;6275597;22;20387;-44
2023/09/28 04:14:25;;;;;;;4.93;4.50;;;19.40;1.00;;;;;;6274797;22;20650;-44
2023/09/28 04:16:51;;;;;;;4.67;4.17;;;19.40;1.00;;;;;;6274262;22;20501;-44
2023/09/28 04:19:16;;;;;;;6.37;5.77;;;19.40;1.00;;;;;;6274261;22;20176;-44
2023/09/28 04:21:42;;;;;;;6.27;5.67;;;19.40;1.00;;;;;;6274078;22;20171;-43
2023/09/28 04:24:08;;;;;;;4.73;4.23;;;19.40;1.00;;;;;;6274256;22;20697;-44
2023/09/28 04:26:34;;;;;;;5.97;4.83;;;19.30;1.00;;;;;;6272945;22;20152;-44
2023/09/28 04:29:00;;;;;;;5.73;5.10;;;19.40;1.00;;;;;;6273089;22;20460;-44
2023/09/28 04:31:25;;;;;;;4.70;4.07;;;19.40;1.00;;;;;;6275107;22;20394;-44
2023/09/28 04:33:51;;;;;;;5.20;4.70;;;19.30;1.00;;;;;;6274670;22;20169;-44
2023/09/28 04:36:16;;;;;;;5.10;4.60;;;19.30;1.00;;;;;;6275952;22;20180;-49
2023/09/28 04:38:43;;;;;;;5.20;4.80;;;19.30;1.00;;;;;;6248908;22;20148;-44
2023/09/28 04:41:08;;;;;;;4.97;4.50;;;19.30;1.00;;;;;;6274360;22;20257;-44
2023/09/28 04:43:34;;;;;;;4.67;4.00;;;19.30;1.00;;;;;;6274164;22;20773;-43
2023/09/28 04:46:05;;;;;;;6.50;5.00;;;19.30;1.00;;;;;;6273387;22;20172;-44
2023/09/28 04:48:31;;;;;;;5.03;4.63;;;19.30;1.00;;;;;;6287071;22;20456;-44
2023/09/28 04:50:57;;;;;;;6.10;5.23;;;19.20;1.00;;;;;;6273098;22;20358;-44
2023/09/28 04:53:23;;;;;;;6.20;5.60;;;19.30;1.00;;;;;;6272670;22;20376;-44
2023/09/28 04:55:48;;;;;;;5.27;4.73;;;19.20;1.00;;;;;;6272605;22;20419;-43
2023/09/28 04:58:14;;;;;;;6.63;4.83;;;19.20;1.00;;;;;;6272474;22;20202;-44
2023/09/28 05:00:39;;;;;;;8.07;5.17;;;19.20;1.00;;;;;;6271802;22;20160;-44
2023/09/28 05:03:33;;;;;;;5.70;5.20;;;19.20;1.00;;;;;;6276074;22;20497;-43
2023/09/28 05:05:59;;;;;;;5.47;4.97;;;19.20;1.00;;;;;;6272208;22;20155;-44
2023/09/28 05:08:25;;;;;;;7.10;4.80;;;19.20;1.00;;;;;;6269230;22;20375;-44
2023/09/28 05:10:51;;;;;;;6.60;5.00;;;19.20;1.00;;;;;;6270077;22;20152;-43
2023/09/28 05:13:17;;;;;;;11.27;6.40;;;19.30;1.00;;;;;;6267077;22;20351;-44
2023/09/28 05:15:42;;;;;;;6.90;5.50;;;19.30;1.00;;;;;;6266320;22;20476;-44
2023/09/28 05:18:08;;;;;;;5.67;5.07;;;19.40;1.00;;;;;;6269127;22;20477;-44
2023/09/28 05:20:34;;;;;;;5.13;4.63;;;19.50;1.00;;;;;;6240544;22;20409;-44
2023/09/28 05:22:59;;;;;;;7.33;5.30;;;19.50;1.00;;;;;;6266224;22;20153;-44
2023/09/28 05:25:25;;;;;;;6.00;5.40;;;19.50;1.00;;;;;;6243442;22;20156;-44
2023/09/28 05:27:54;;;;;;;6.50;4.60;;;19.60;1.00;;;;;;6269365;22;20139;-44
2023/09/28 05:30:20;;;;;;;8.10;5.03;;;19.60;1.00;;;;;;6266917;22;20151;-44
2023/09/28 05:32:45;;;;;;;6.60;5.60;;;19.60;1.00;;;;;;6268325;22;20379;-44
2023/09/28 05:35:11;;;;;;;6.20;5.10;;;19.70;1.00;;;;;;6270885;22;20195;-44
2023/09/28 05:37:36;;;;;;;6.43;5.43;;;19.70;1.00;;;;;;6268088;22;20184;-43
2023/09/28 05:40:04;;;;;;;6.77;5.57;;;19.70;1.00;;;;;;6270972;22;20530;-44
2023/09/28 05:42:30;;;;;;;8.37;4.87;;;19.80;1.00;;;;;;6271003;22;20217;-44
2023/09/28 05:44:56;;;;;;;8.17;5.37;;;19.80;1.00;;;;;;6271963;22;20936;-43
2023/09/28 05:47:21;;;;;;;6.27;5.00;;;19.80;1.00;;;;;;6271346;22;20522;-44
2023/09/28 05:49:49;;;;;;;6.73;5.70;;;19.80;1.00;;;;;;6271115;22;20192;-43
2023/09/28 05:52:15;;;;;;;9.30;5.17;;;19.80;1.00;;;;;;6271102;22;20333;-44
2023/09/28 05:54:42;;;;;;;5.20;4.70;;;19.80;1.00;;;;;;6244227;22;20402;-44
2023/09/28 05:57:08;;;;;;;5.83;5.23;;;19.90;1.00;;;;;;6271447;22;20781;-44
2023/09/28 05:59:33;;;;;;;9.40;5.47;;;19.90;1.00;;;;;;6273649;22;20383;-44
2023/09/28 06:01:59;;;;;;;5.30;4.70;;;19.90;1.00;;;;;;6271835;22;20597;-43
2023/09/28 06:04:25;;;;;;;7.30;4.60;;;19.90;1.00;;;;;;6271519;22;20656;-44
2023/09/28 06:06:52;;;;;;;6.57;5.43;;;20.00;1.00;;;;;;6247295;22;20409;-44
2023/09/28 06:09:21;;;;;;;6.03;5.43;;;20.00;1.00;;;;;;6275664;22;20163;-44
2023/09/28 06:11:48;;;;;;;19.03;6.03;;;20.00;1.00;;;;;;6274167;22;20383;-44
2023/09/28 06:14:15;;;;;;;6.97;5.13;;;20.00;1.00;;;;;;6275135;22;20464;-44
2023/09/28 06:16:42;;;;;;;7.73;5.10;;;20.10;1.00;;;;;;6274133;22;20529;-44
2023/09/28 06:19:07;;;;;;;10.57;6.10;;;20.10;1.00;;;;;;6275854;22;20412;-44
2023/09/28 06:21:33;;;;;;;8.20;5.80;;;20.20;1.00;;;;;;6275559;22;20395;-44
2023/09/28 06:23:59;;;;;;;7.50;5.60;;;20.20;1.00;;;;;;6274177;22;20179;-44
2023/09/28 06:26:25;;;;;;;13.30;6.50;;;20.30;1.00;;;;;;6274380;22;20163;-44
2023/09/28 06:28:50;;;;;;;10.43;6.10;;;20.50;1.00;;;;;;6248519;22;20415;-44
2023/09/28 06:31:18;;;;;;;11.20;6.43;;;20.60;1.00;;;;;;6274037;22;20505;-44
2023/09/28 06:33:45;;;;;;;12.13;5.90;;;20.80;1.00;;;;;;6275536;22;20393;-44
2023/09/28 06:36:10;;;;;;;8.53;6.20;;;21.10;1.00;;;;;;6274753;22;20428;-44
2023/09/28 06:38:36;;;;;;;7.67;5.50;;;21.30;1.00;;;;;;6274440;22;20578;-44
2023/09/28 06:41:03;;;;;;;14.40;6.33;;;21.60;1.00;;;;;;6274423;22;20145;-45
2023/09/28 06:43:29;;;;;;;10.90;5.60;;;21.70;1.00;;;;;;6246239;22;20171;-44
2023/09/28 06:45:57;;;;;;;10.90;6.27;;;21.80;1.00;;;;;;6275427;22;20351;-43
2023/09/28 06:48:26;;;;;;;14.67;7.10;;;21.80;1.00;;;;;;6275138;22;20457;-43
2023/09/28 06:50:53;;;;;;;20.90;7.40;;;22.00;1.00;;;;;;6274622;22;20722;-45
2023/09/28 06:53:19;;;;;;;18.90;6.80;;;22.10;1.00;;;;;;6246111;22;20391;-45
2023/09/28 06:55:45;;;;;;;12.77;6.77;;;22.20;1.00;;;;;;6270459;22;20602;-45
2023/09/28 06:58:14;;;;;;;14.97;7.03;;;22.40;1.00;;;;;;6273399;22;20407;-45
2023/09/28 07:00:46;;;;;;;15.77;6.87;;;22.60;1.00;;;;;;6271006;22;20129;-45
2023/09/28 07:03:12;;;;;;;10.23;6.50;;;22.80;1.00;;;;;;6273827;22;20489;-45
2023/09/28 07:05:38;;;;;;;17.93;7.23;;;23.00;1.00;;;;;;6275896;22;20448;-45
2023/09/28 07:08:05;;;;;;;7.93;5.97;;;23.10;1.00;;;;;;6276424;22;20395;-45
2023/09/28 07:10:32;;;;;;;9.97;6.50;;;23.20;1.00;;;;;;6275454;22;20271;-44
2023/09/28 07:13:07;;;;;;;18.40;6.23;;;23.40;1.00;;;;;;6276650;22;20347;-45
2023/09/28 07:15:33;;;;;;;9.83;6.57;;;23.50;1.00;;;;;;6275531;22;20833;-43
2023/09/28 07:18:00;;;;;;;13.80;5.97;;;23.60;1.00;;;;;;6276264;22;20389;-45
2023/09/28 07:20:26;;;;;;;14.87;5.90;;;23.50;1.00;;;;;;6275469;22;20405;-45
2023/09/28 07:22:52;;;;;;;6.73;6.00;;;23.50;1.00;;;;;;6274361;22;20689;-45
2023/09/28 07:25:19;;;;;;;7.27;5.77;;;23.40;1.00;;;;;;6273405;22;20362;-45
2023/09/28 07:27:47;;;;;;;10.17;6.37;;;23.40;1.00;;;;;;6274076;22;20370;-44
2023/09/28 07:30:14;;;;;;;7.00;5.70;;;23.30;1.00;;;;;;6275077;22;20379;-44
2023/09/28 07:32:40;;;;;;;7.43;5.83;;;23.30;1.00;;;;;;6275030;22;20595;-45
2023/09/28 07:35:09;;;;;;;9.37;6.17;;;23.20;1.00;;;;;;6273964;22;20410;-45
2023/09/28 07:37:35;;;;;;;8.13;5.67;;;23.20;1.00;;;;;;6271228;22;20243;-45
2023/09/28 07:40:01;;;;;;;12.53;6.17;;;23.10;1.00;;;;;;6272953;22;20348;-44
2023/09/28 07:42:27;;;;;;;14.73;7.17;;;23.10;1.00;;;;;;6246244;22;20399;-44
2023/09/28 07:44:52;;;;;;;9.70;5.40;;;23.10;1.00;;;;;;6272884;22;20405;-44
2023/09/28 07:47:19;;;;;;;9.87;6.37;;;23.00;1.00;;;;;;6274384;22;20237;-44
2023/09/28 07:49:45;;;;;;;9.60;6.10;;;23.00;1.00;;;;;;6275078;22;20269;-44
2023/09/28 07:52:11;;;;;;;12.30;6.50;;;23.10;1.00;;;;;;6275598;22;20352;-45
2023/09/28 07:54:37;;;;;;;12.80;6.00;;;23.20;1.00;;;;;;6277581;22;20497;-44
2023/09/28 07:57:04;;;;;;;13.20;6.60;;;23.40;1.00;;;;;;6278420;22;20169;-44
2023/09/28 07:59:34;;;;;;;23.97;8.00;;;23.60;1.00;;;;;;6277895;22;20387;-46
2023/09/28 08:02:00;;;;;;;21.63;7.50;;;23.90;1.00;;;;;;6273472;22;21044;-45
2023/09/28 08:04:25;;;;;;;23.60;7.40;;;24.30;1.00;;;;;;6273959;22;20430;-43
2023/09/28 08:06:51;;;;;;;31.17;9.10;;;24.80;1.00;;;;;;6275378;22;20363;-44
2023/09/28 08:09:19;;;;;;;38.43;9.63;;;25.20;1.00;;;;;;6275402;22;20152;-44
2023/09/28 08:11:46;;;;;;;26.53;8.00;;;25.30;1.00;;;;;;6274854;22;20383;-44
2023/09/28 08:14:15;;;;;;;24.10;7.30;;;25.20;1.00;;;;;;6275083;22;20414;-44
2023/09/28 08:16:44;;;;;;;39.00;9.80;;;25.10;1.00;;;;;;6275193;22;20506;-44
2023/09/28 08:19:10;;;;;;;38.53;9.83;;;24.90;1.00;;;;;;6274380;22;20359;-43
2023/09/28 08:21:38;;;;;;;22.20;7.83;;;24.70;1.00;;;;;;6273553;22;20364;-44
2023/09/28 08:24:04;;;;;;;30.40;8.17;;;24.50;1.00;;;;;;6246453;22;20409;-45
2023/09/28 08:26:33;;;;;;;33.30;9.00;;;24.40;1.00;;;;;;6274777;22;20383;-43
2023/09/28 08:28:58;;;;;;;28.30;7.53;;;24.40;1.00;;;;;;6269803;22;20402;-43
2023/09/28 08:31:24;;;;;;;27.33;7.87;;;24.70;1.00;;;;;;6273147;22;20383;-44
2023/09/28 08:33:50;;;;;;;31.87;8.40;;;25.20;1.00;;;;;;6275942;22;20198;-44
2023/09/28 08:36:16;;;;;;;25.63;8.60;;;25.70;1.00;;;;;;6276150;22;20172;-44
2023/09/28 08:38:41;;;;;;;22.60;7.67;;;26.30;1.00;;;;;;6275582;22;20806;-44
2023/09/28 08:41:09;;;;;;;29.83;7.97;;;26.90;1.00;;;;;;6272335;22;20148;-45
2023/09/28 08:43:41;;;;;;;22.20;7.40;;;27.50;1.00;;;;;;6273240;22;20159;-44
2023/09/28 08:46:11;;;;;;;19.40;6.87;;;28.10;1.00;;;;;;6269211;22;20370;-45
2023/09/28 08:48:40;;;;;;;23.03;7.07;;;28.60;1.00;;;;;;6270846;22;20601;-45
2023/09/28 08:51:09;;;;;;;9.57;6.27;;;29.10;1.00;;;;;;6244881;22;20530;-44
2023/09/28 08:53:37;;;;;;;16.60;5.90;;;29.50;1.00;;;;;;6244890;22;20718;-44
2023/09/28 08:56:04;;;;;;;13.70;6.20;;;29.90;1.00;;;;;;6271294;22;20389;-44
2023/09/28 08:58:34;;;;;;;16.60;5.90;;;30.20;1.00;;;;;;6272001;22;20466;-44
2023/09/28 09:01:01;;;;;;;13.00;8.03;;;30.60;1.00;;;;;;6273130;22;20364;-44
2023/09/28 09:03:28;;;;;;;11.47;5.80;;;30.90;1.00;;;;;;6274775;22;20398;-44
2023/09/28 09:05:55;;;;;;;12.00;6.27;;;31.20;1.00;;;;;;6274677;22;20540;-44
2023/09/28 09:08:22;;;;;;;9.20;6.17;;;31.70;1.00;;;;;;6274678;22;20358;-43
2023/09/28 09:10:52;;;;;;;8.40;4.97;;;32.00;1.00;;;;;;6273063;22;20407;-43
2023/09/28 09:13:21;;;;;;;7.40;4.90;;;32.40;1.00;;;;;;6272725;22;20358;-45
2023/09/28 09:15:50;;;;;;;8.67;6.47;;;32.80;1.00;;;;;;6276676;22;20714;-44
2023/09/28 09:18:19;;;;;;;5.90;5.30;;;33.30;1.00;;;;;;6275719;22;20383;-44
2023/09/28 09:20:49;;;;;;;10.10;5.87;;;33.60;1.00;;;;;;6276152;22;20500;-44
2023/09/28 09:23:16;;;;;;;6.77;4.97;;;34.00;1.00;;;;;;6277275;22;20370;-44
2023/09/28 09:25:53;;;;;;;12.60;5.03;;;34.30;1.00;;;;;;6275746;22;20726;-44
2023/09/28 09:28:32;;;;;;;7.00;4.60;;;34.60;1.00;;;;;;6278213;22;20365;-43
2023/09/28 09:30:59;;;;;;;11.50;5.40;;;35.00;1.00;;;;;;6277222;22;20351;-44
2023/09/28 09:33:25;;;;;;;37.77;8.37;;;35.40;1.00;;;;;;6249724;22;20364;-45
2023/09/28 09:35:51;;;;;;;16.80;6.47;;;35.80;1.00;;;;;;6249889;22;20383;-45
2023/09/28 09:38:29;;;;;;;26.77;8.67;;;36.10;1.00;;;;;;6276389;22;20371;-45
2023/09/28 09:40:58;;;;;;;20.13;7.30;;;36.50;1.00;;;;;;6275700;22;20991;-45
2023/09/28 09:43:24;;;;;;;18.57;5.23;;;36.80;1.00;;;;;;6276345;22;20779;-44
2023/09/28 09:45:50;;;;;;;32.90;9.07;;;37.10;1.00;;;;;;6274307;22;20326;-45
2023/09/28 09:48:16;;;;;;;59.03;10.93;;;37.40;1.00;;;;;;6276182;22;20149;-45
2023/09/28 09:50:43;;;;;;;79.23;13.40;;;37.80;1.00;;;;;;6248685;22;20157;-44
2023/09/28 09:53:09;;;;;;;124.13;17.73;;;38.10;1.00;;;;;;6276320;22;20393;-45
2023/09/28 09:55:40;;;;;;;84.57;15.97;;;38.50;1.00;;;;;;6249418;22;20446;-45
2023/09/28 09:58:07;;;;;;;119.83;18.43;;;38.80;1.00;;;;;;6250845;22;20767;-44
2023/09/28 10:00:33;;;;;;;78.00;15.60;;;39.10;1.00;;;;;;6249723;22;20777;-45
2023/09/28 10:03:03;;;;;;;74.30;13.83;;;39.40;1.00;;;;;;6276571;22;20382;-44
2023/09/28 10:05:30;;;;;;;90.50;15.80;;;39.60;1.00;;;;;;6276201;22;20441;-44
2023/09/28 10:07:56;;;;;;;94.87;14.57;;;39.80;1.00;;;;;;6275629;22;20386;-44
2023/09/28 10:10:23;;;;;;;70.53;14.73;;;40.10;1.00;;;;;;6275761;22;20371;-44
2023/09/28 10:12:49;;;;;;;72.77;15.00;;;40.30;1.00;;;;;;6276073;22;20416;-44
2023/09/28 10:15:16;;;;;;;61.37;14.80;;;40.60;1.00;;;;;;6277140;22;20394;-44
2023/09/28 10:17:43;;;;;;;46.70;10.70;;;40.80;1.00;;;;;;6250723;22;20430;-44
2023/09/28 10:20:08;;;;;;;41.73;10.00;;;41.10;1.00;;;;;;6276709;22;20810;-44
2023/09/28 10:22:36;;;;;;;36.43;8.90;;;41.20;1.00;;;;;;6275603;22;20375;-44
2023/09/28 10:25:01;;;;;;;30.10;8.67;;;41.40;1.00;;;;;;6223919;22;20464;-42
2023/09/28 10:27:27;;;;;;;13.50;6.10;;;41.30;1.00;;;;;;6276883;22;20379;-41
2023/09/28 10:30:15;;;;;;;6.93;4.13;;;40.80;1.00;;;;;;6276886;22;20188;-40
2023/09/28 10:32:41;;;;;;;15.87;6.30;;;40.10;1.00;;;;;;6275084;22;20140;-38
2023/09/28 10:35:26;;;;;;;5.43;4.20;;;39.60;1.00;;;;;;6275322;22;20382;-40
2023/09/28 10:38:15;;;;;;;4.73;4.20;;;39.10;1.00;;;;;;6250704;22;20188;-41
2023/09/28 10:40:42;;;;;;;4.43;3.83;;;38.80;1.00;;;;;;6276059;22;20380;-39
2023/09/28 10:43:09;;;;;;;3.90;3.23;;;38.60;1.00;;;;;;6274531;22;20388;-38
2023/09/28 10:45:37;;;;;;;5.93;4.10;;;38.20;1.00;;;;;;6273193;22;20322;-40
2023/09/28 10:48:05;;;;;;;4.90;3.27;;;37.50;1.00;;;;;;6271485;22;20461;-39
2023/09/28 10:50:30;;;;;;;3.60;3.30;;;37.30;1.00;;;;;;6277404;22;20744;-38
2023/09/28 10:52:56;;;;;;;5.17;4.07;;;37.40;1.00;;;;;;6305727;22;20373;-39
2023/09/28 10:55:22;;;;;;;3.47;3.07;;;37.30;1.00;;;;;;6306214;22;20139;-40
2023/09/28 10:57:47;;;;;;;4.90;3.23;;;37.50;1.00;;;;;;6305218;22;20513;-41
2023/09/28 11:00:13;;;;;;;3.63;3.33;;;37.50;1.00;;;;;;6278989;22;20148;-37
2023/09/28 11:02:41;;;;;;;3.80;3.50;;;37.50;1.00;;;;;;6306650;22;20152;-38
2023/09/28 11:05:08;;;;;;;3.83;3.50;;;37.50;1.00;;;;;;6304734;22;20152;-38
2023/09/28 11:07:34;;;;;;;3.17;2.90;;;37.50;1.00;;;;;;6303072;22;20361;-38
2023/09/28 11:10:00;;;;;;;3.10;2.60;;;37.60;1.00;;;;;;6279209;22;20378;-39
2023/09/28 11:12:28;;;;;;;3.10;2.90;;;37.80;1.00;;;;;;6305950;22;20389;-39
2023/09/28 11:14:58;;;;;;;3.67;3.37;;;37.70;1.00;;;;;;6281435;22;20404;-38
2023/09/28 11:17:24;;;;;;;3.30;3.00;;;37.20;1.00;;;;;;6308557;22;20507;-40
2023/09/28 11:19:50;;;;;;;3.97;3.67;;;36.90;1.00;;;;;;6307189;22;20385;-40
2023/09/28 11:22:16;;;;;;;10.17;3.80;;;37.10;1.00;;;;;;6253519;22;20371;-40
2023/09/28 11:24:42;;;;;;;40.67;6.60;;;37.40;1.00;;;;;;6304357;22;20402;-39
2023/09/28 11:27:08;;;;;;;36.13;6.70;;;37.90;1.00;;;;;;6304476;22;20152;-39
2023/09/28 11:29:36;;;;;;;24.33;6.50;;;38.50;1.00;;;;;;6303589;22;20645;-40
2023/09/28 11:32:03;;;;;;;4.77;3.40;;;39.00;1.00;;;;;;6303457;22;20386;-39
2023/09/28 11:34:35;;;;;;;7.67;3.97;;;39.30;1.00;;;;;;6303211;22;20742;-39
2023/09/28 11:37:01;;;;;;;4.80;2.93;;;39.50;1.00;;;;;;6304630;22;20488;-39
2023/09/28 11:39:27;;;;;;;4.30;3.80;;;39.40;1.00;;;;;;6305972;22;20406;-40
2023/09/28 11:41:59;;;;;;;4.10;3.47;;;39.50;1.00;;;;;;6306322;22;20379;-39
2023/09/28 11:44:28;;;;;;;18.80;3.90;;;39.60;1.00;;;;;;6278047;22;20546;-40
2023/09/28 11:46:54;;;;;;;10.07;3.63;;;39.60;1.00;;;;;;6305277;22;20393;-39
2023/09/28 11:49:21;;;;;;;5.40;3.40;;;39.60;1.00;;;;;;6289116;22;20509;-40
2023/09/28 11:51:47;;;;;;;3.30;3.00;;;39.80;1.00;;;;;;6275619;22;20672;-38
2023/09/28 11:54:14;;;;;;;4.60;3.37;;;40.10;1.00;;;;;;6274499;22;20430;-40
2023/09/28 11:56:40;;;;;;;8.57;3.87;;;40.10;1.00;;;;;;6276111;22;20563;-38
2023/09/28 11:59:09;;;;;;;7.10;3.60;;;40.30;1.00;;;;;;6275650;22;20394;-42
2023/09/28 12:01:35;;;;;;;6.87;3.60;;;40.50;1.00;;;;;;6274593;22;20393;-40
2023/09/28 12:04:00;;;;;;;3.40;3.10;;;40.80;1.00;;;;;;6274515;22;20375;-39
2023/09/28 12:06:27;;;;;;;3.87;3.13;;;40.80;1.00;;;;;;6273925;22;20375;-38
2023/09/28 12:08:53;;;;;;;4.37;3.30;;;40.60;1.00;;;;;;6273521;22;20156;-38
2023/09/28 12:11:18;;;;;;;2.90;2.60;;;40.60;1.00;;;;;;6249110;22;20371;-39
2023/09/28 12:13:46;;;;;;;3.40;2.87;;;41.00;1.00;;;;;;6247006;22;20532;-40
2023/09/28 12:16:12;;;;;;;3.53;2.93;;;41.20;1.00;;;;;;6271997;22;20394;-38
2023/09/28 12:18:37;;;;;;;3.80;3.50;;;41.20;1.00;;;;;;6273212;22;20363;-42
2023/09/28 12:21:03;;;;;;;3.33;3.03;;;41.50;1.00;;;;;;6274192;22;20183;-38
2023/09/28 12:23:29;;;;;;;5.33;3.40;;;41.90;1.00;;;;;;6272650;22;20386;-40
2023/09/28 12:25:55;;;;;;;3.50;3.20;;;42.00;1.00;;;;;;6272253;22;20619;-40
2023/09/28 12:28:24;;;;;;;3.20;2.90;;;42.00;1.00;;;;;;6273907;22;20210;-39
2023/09/28 12:30:50;;;;;;;4.30;3.37;;;41.70;1.00;;;;;;6246010;22;20363;-38
2023/09/28 12:33:16;;;;;;;3.30;3.00;;;42.00;1.00;;;;;;6275434;22;20440;-40
2023/09/28 12:35:42;;;;;;;2.97;2.67;;;42.10;1.00;;;;;;6275145;22;20779;-41
2023/09/28 12:38:08;;;;;;;2.83;2.63;;;42.00;1.00;;;;;;6272875;22;20140;-41
2023/09/28 12:40:35;;;;;;;3.40;3.10;;;41.70;1.00;;;;;;6272102;22;20375;-39
2023/09/28 12:43:04;;;;;;;4.40;3.33;;;41.50;1.00;;;;;;6245467;22;20206;-41
2023/09/28 12:45:33;;;;;;;2.80;2.60;;;41.70;1.00;;;;;;6273273;22;20351;-39
2023/09/28 12:48:00;;;;;;;3.33;2.80;;;41.50;1.00;;;;;;6273165;22;20375;-39
2023/09/28 12:50:26;;;;;;;3.67;2.90;;;41.30;1.00;;;;;;6271463;22;20469;-40
2023/09/28 12:52:53;;;;;;;2.80;2.50;;;41.30;1.00;;;;;;6272812;22;20423;-38
2023/09/28 12:55:19;;;;;;;4.10;2.40;;;41.30;1.00;;;;;;6273460;22;20360;-40